Time;durP1;ratioP1;P1;durP2;ratioP2;P2;SDS_P1;SDS_P2;PMS_P1;PMS_P2;Temp;Humidity;BMP_temperature;BMP_pressure;BME280_temperature;BME280_humidity;BME280_pressure;Samples;Min_cycle;Max_cycle;Signal;HPM_P1;HPM_P2
2021/06/13 00:01:23;;;;;;;9.77;3.83;;;;;;;30.37;30.91;102543.19;5074160;28;20378;-74
2021/06/13 00:03:49;;;;;;;10.15;3.90;;;;;;;30.36;30.85;102541.56;5074116;28;20031;-74
2021/06/13 00:06:15;;;;;;;11.90;3.97;;;;;;;30.32;31.12;102540.78;5074148;28;20103;-73
2021/06/13 00:08:41;;;;;;;10.63;3.85;;;;;;;30.35;30.83;102541.97;5073939;28;20123;-74
2021/06/13 00:11:08;;;;;;;9.52;4.00;;;;;;;30.37;30.95;102537.53;5073970;28;20103;-73
2021/06/13 00:13:33;;;;;;;12.60;3.70;;;;;;;30.39;30.56;102535.13;5073903;28;20024;-74
2021/06/13 00:15:59;;;;;;;9.52;3.30;;;;;;;30.42;30.72;102538.34;5073860;28;20035;-74
2021/06/13 00:18:25;;;;;;;10.25;3.88;;;;;;;30.33;31.00;102533.13;5073825;28;20457;-73
2021/06/13 00:20:52;;;;;;;9.82;3.95;;;;;;;30.31;30.98;102532.75;5055791;28;20025;-73
2021/06/13 00:23:18;;;;;;;10.55;4.50;;;;;;;30.34;31.01;102529.91;5073700;28;20060;-74
2021/06/13 00:25:45;;;;;;;16.15;4.43;;;;;;;30.38;30.97;102530.72;5073684;28;20051;-73
2021/06/13 00:28:10;;;;;;;13.35;4.43;;;;;;;30.38;30.93;102530.72;5072192;28;20409;-73
2021/06/13 00:30:36;;;;;;;13.27;4.25;;;;;;;30.26;30.77;102530.34;5073040;28;20119;-73
2021/06/13 00:33:03;;;;;;;9.05;4.15;;;;;;;30.33;30.55;102525.47;5073539;28;20051;-74
2021/06/13 00:35:29;;;;;;;8.77;3.53;;;;;;;30.30;30.64;102531.91;5073442;28;20017;-74
2021/06/13 00:37:54;;;;;;;9.48;4.07;;;;;;;30.18;31.11;102528.75;5073478;28;20070;-74
2021/06/13 00:40:23;;;;;;;11.55;3.42;;;;;;;30.25;30.92;102528.72;5073338;28;20044;-74
2021/06/13 00:42:49;;;;;;;11.25;3.60;;;;;;;30.28;30.80;102527.91;5073390;28;20027;-74
2021/06/13 00:45:15;;;;;;;8.85;3.70;;;;;;;30.35;30.59;102525.88;5073232;28;20033;-73
2021/06/13 00:47:41;;;;;;;10.52;4.03;;;;;;;30.35;30.68;102527.88;5073220;28;20474;-73
2021/06/13 00:50:32;;;;;;;8.18;3.28;;;;;;;30.39;30.49;102518.22;5073098;28;20044;-73
2021/06/13 00:52:59;;;;;;;7.78;3.40;;;;;;;30.31;30.05;102522.28;5072751;28;20040;-73
2021/06/13 00:55:26;;;;;;;8.85;3.60;;;;;;;30.21;30.46;102520.25;5073120;28;20107;-73
2021/06/13 00:57:53;;;;;;;9.40;3.90;;;;;;;30.23;30.42;102514.22;5073140;28;20082;-73
2021/06/13 01:00:20;;;;;;;12.63;4.25;;;;;;;29.96;30.76;102511.81;5072968;28;20024;-73
2021/06/13 01:02:45;;;;;;;8.38;3.33;;;;;;;29.97;30.88;102509.81;5072947;28;20490;-75
2021/06/13 01:05:12;;;;;;;8.80;3.33;;;;;;;29.88;30.91;102503.78;5055028;28;20022;-73
2021/06/13 01:08:02;;;;;;;8.02;2.95;;;;;;;29.81;30.62;102505.41;5054951;28;20081;-73
2021/06/13 01:10:37;;;;;;;7.00;3.00;;;;;;;29.81;30.54;102496.94;5072753;28;20394;-74
2021/06/13 01:13:17;;;;;;;9.30;3.90;;;;;;;30.00;30.39;102494.91;5072873;28;20032;-74
2021/06/13 01:15:50;;;;;;;8.68;3.60;;;;;;;30.15;30.31;102495.72;5072847;28;20058;-74
2021/06/13 01:18:54;;;;;;;6.60;3.08;;;;;;;30.19;30.17;102494.50;5072776;28;20028;-75
2021/06/13 01:21:28;;;;;;;5.97;3.83;;;;;;;30.15;30.46;102495.72;5072760;28;20033;-74
2021/06/13 01:24:17;;;;;;;10.25;3.30;;;;;;;30.21;30.49;102502.53;5072752;28;20031;-74
2021/06/13 01:27:04;;;;;;;10.27;3.42;;;;;;;30.19;30.53;102505.78;5072794;28;20131;-74
2021/06/13 01:29:37;;;;;;;9.07;3.80;;;;;;;30.18;30.68;102507.00;5072581;28;20032;-75
2021/06/13 01:32:09;;;;;;;8.85;3.10;;;;;;;30.23;30.34;102509.41;5072896;28;20047;-74
2021/06/13 01:34:44;;;;;;;10.95;3.47;;;;;;;30.24;30.32;102494.09;5072610;28;20074;-74
2021/06/13 01:37:22;;;;;;;7.55;3.22;;;;;;;30.27;30.65;102498.09;5072583;28;20024;-73
2021/06/13 01:39:52;;;;;;;7.72;2.65;;;;;;;30.29;30.47;102495.66;5071866;28;20031;-73
2021/06/13 01:42:19;;;;;;;13.30;4.30;;;;;;;30.30;30.29;102494.47;5072448;28;20020;-74
2021/06/13 01:44:50;;;;;;;13.93;4.00;;;;;;;30.14;30.96;102491.28;5072415;28;20048;-74
2021/06/13 01:47:17;;;;;;;12.32;4.05;;;;;;;30.13;30.89;102489.69;5072478;28;20418;-74
2021/06/13 01:49:44;;;;;;;13.02;3.42;;;;;;;30.23;30.67;102486.03;5072362;28;20115;-74
2021/06/13 01:52:12;;;;;;;7.72;3.40;;;;;;;30.17;30.81;102494.09;5072190;28;20090;-74
2021/06/13 01:54:38;;;;;;;12.00;3.58;;;;;;;30.18;30.83;102487.25;5072413;28;20494;-74
2021/06/13 01:57:06;;;;;;;8.68;3.83;;;;;;;30.14;30.93;102489.28;5072333;28;20029;-74
2021/06/13 01:59:34;;;;;;;5.05;3.13;;;;;;;30.15;30.98;102487.25;5072359;28;20033;-73
2021/06/13 02:02:03;;;;;;;9.15;3.90;;;;;;;30.08;30.97;102490.88;5072264;28;20060;-74
2021/06/13 02:04:31;;;;;;;9.00;3.92;;;;;;;30.00;30.71;102492.09;5072376;28;20039;-74
2021/06/13 02:06:58;;;;;;;9.25;3.60;;;;;;;29.90;30.97;102490.91;5072241;28;20075;-74
2021/06/13 02:09:25;;;;;;;5.97;3.22;;;;;;;29.86;31.16;102483.69;5054244;28;20028;-73
2021/06/13 02:11:54;;;;;;;7.40;3.75;;;;;;;29.92;30.99;102482.03;5072233;28;20099;-73
2021/06/13 02:14:25;;;;;;;10.50;3.90;;;;;;;29.92;30.95;102484.84;5072176;28;20503;-74
2021/06/13 02:16:52;;;;;;;15.40;4.78;;;;;;;29.80;31.18;102489.72;5072188;28;20021;-74
2021/06/13 02:19:20;;;;;;;9.52;3.45;;;;;;;29.75;31.06;102495.75;5072165;28;20032;-73
2021/06/13 02:21:51;;;;;;;8.27;4.30;;;;;;;29.65;31.15;102499.38;5072054;28;20028;-73
2021/06/13 02:24:18;;;;;;;10.88;4.22;;;;;;;29.50;31.27;102494.94;5072112;28;20116;-73
2021/06/13 02:26:45;;;;;;;10.10;3.80;;;;;;;29.48;31.64;102492.50;5072034;28;20115;-73
2021/06/13 02:29:12;;;;;;;9.73;4.22;;;;;;;29.48;31.40;102489.69;5071983;28;20470;-73
2021/06/13 02:31:41;;;;;;;7.63;4.30;;;;;;;29.45;31.44;102484.84;5071954;28;20056;-74
2021/06/13 02:34:08;;;;;;;12.40;4.20;;;;;;;29.43;31.66;102483.66;5072053;28;20059;-74
2021/06/13 02:36:35;;;;;;;11.93;5.10;;;;;;;29.34;31.39;102486.88;5071974;28;20032;-73
2021/06/13 02:39:01;;;;;;;8.73;3.65;;;;;;;29.26;31.75;102477.63;5070970;28;20425;-75
2021/06/13 02:41:27;;;;;;;8.20;4.55;;;;;;;29.23;31.76;102483.22;5071351;28;20074;-73
2021/06/13 02:43:53;;;;;;;10.20;4.13;;;;;;;29.21;31.91;102477.19;5071936;28;20020;-74
2021/06/13 02:46:19;;;;;;;7.05;4.43;;;;;;;29.13;31.80;102487.63;5071876;28;20032;-73
2021/06/13 02:48:44;;;;;;;11.82;4.25;;;;;;;29.05;31.96;102477.56;5071746;28;20112;-73
2021/06/13 02:51:13;;;;;;;7.82;3.50;;;;;;;28.91;32.17;102478.34;5072925;28;20076;-75
2021/06/13 02:53:45;;;;;;;10.48;5.07;;;;;;;28.94;32.03;102471.09;5075464;28;20028;-74
2021/06/13 02:56:18;;;;;;;11.10;4.53;;;;;;;28.89;32.13;102480.72;5075400;28;20150;-73
2021/06/13 02:58:45;;;;;;;15.20;4.70;;;;;;;28.84;32.07;102469.84;5057403;28;20032;-73
2021/06/13 03:01:15;;;;;;;9.75;4.70;;;;;;;28.78;32.37;102481.88;5075377;28;20032;-74
2021/06/13 03:03:43;;;;;;;13.50;4.43;;;;;;;28.73;32.41;102475.47;5075342;28;20490;-74
2021/06/13 03:06:20;;;;;;;11.55;5.53;;;;;;;28.56;32.43;102475.38;5075248;28;20021;-73
2021/06/13 03:08:49;;;;;;;13.45;4.40;;;;;;;28.43;32.75;102469.31;5075039;28;20408;-73
2021/06/13 03:11:20;;;;;;;9.65;4.60;;;;;;;28.32;32.91;102472.06;5072224;28;20032;-73
2021/06/13 03:13:48;;;;;;;12.27;5.60;;;;;;;28.43;32.70;102463.69;5075150;28;20024;-74
2021/06/13 03:16:15;;;;;;;10.90;4.95;;;;;;;28.37;32.94;102468.88;5057221;28;20507;-74
2021/06/13 03:18:43;;;;;;;11.27;5.68;;;;;;;28.37;32.66;102465.25;5075078;28;20386;-73
2021/06/13 03:21:12;;;;;;;11.95;4.53;;;;;;;28.34;32.71;102471.66;5075049;28;20576;-73
2021/06/13 03:23:38;;;;;;;17.63;5.55;;;;;;;28.24;33.10;102476.00;5074991;28;20090;-73
2021/06/13 03:26:04;;;;;;;14.88;5.80;;;;;;;28.27;32.83;102464.00;5074922;28;20109;-74
2021/06/13 03:28:32;;;;;;;19.70;6.10;;;;;;;28.01;33.17;102467.03;5074862;28;20028;-73
2021/06/13 03:30:59;;;;;;;13.15;5.47;;;;;;;28.20;33.04;102464.75;5074221;28;20056;-73
2021/06/13 03:33:27;;;;;;;14.23;4.82;;;;;;;28.24;33.07;102461.16;5074754;28;20493;-73
2021/06/13 03:35:57;;;;;;;11.80;5.43;;;;;;;28.27;32.95;102463.19;5074666;28;20029;-73
2021/06/13 03:38:23;;;;;;;11.45;4.78;;;;;;;28.23;33.05;102459.53;5074785;28;20029;-73
2021/06/13 03:40:50;;;;;;;10.80;5.30;;;;;;;28.27;33.00;102452.75;5056705;28;20482;-73
2021/06/13 03:43:18;;;;;;;17.42;6.07;;;;;;;27.97;33.64;102455.78;5074584;28;20028;-74
2021/06/13 03:45:45;;;;;;;13.73;6.00;;;;;;;28.17;33.26;102457.09;5074534;28;20104;-74
2021/06/13 03:48:13;;;;;;;10.90;4.60;;;;;;;28.18;33.22;102458.69;5074359;28;20048;-73
2021/06/13 03:50:42;;;;;;;15.43;5.05;;;;;;;28.19;33.09;102457.53;5074147;28;20169;-73
2021/06/13 03:53:08;;;;;;;10.93;4.78;;;;;;;28.14;33.28;102466.31;5074535;28;20028;-73
2021/06/13 03:55:33;;;;;;;9.20;4.35;;;;;;;28.17;33.15;102459.91;5074365;28;20391;-73
2021/06/13 03:58:00;;;;;;;8.52;4.85;;;;;;;28.18;32.91;102460.72;5074321;28;20068;-73
2021/06/13 04:00:30;;;;;;;9.75;4.63;;;;;;;28.18;33.24;102455.09;5074251;28;20478;-74
2021/06/13 04:02:56;;;;;;;11.45;5.28;;;;;;;28.18;33.12;102460.72;5055575;28;20024;-73
2021/06/13 04:05:22;;;;;;;13.43;5.00;;;;;;;28.18;33.26;102455.09;5074085;28;20024;-73
2021/06/13 04:07:47;;;;;;;9.38;4.47;;;;;;;28.22;33.38;102455.94;5074111;28;20076;-74
2021/06/13 04:10:15;;;;;;;12.45;4.63;;;;;;;28.25;33.32;102454.31;5074006;28;20024;-74
2021/06/13 04:12:41;;;;;;;11.98;4.68;;;;;;;28.33;33.22;102462.41;5074027;28;20025;-73
2021/06/13 04:15:08;;;;;;;10.50;5.30;;;;;;;28.37;33.12;102460.44;5056799;28;20079;-74
2021/06/13 04:17:34;;;;;;;10.75;5.68;;;;;;;28.41;33.20;102452.00;5053822;28;20033;-73
2021/06/13 04:20:03;;;;;;;12.77;4.80;;;;;;;28.32;33.40;102462.81;5053857;28;20497;-73
2021/06/13 04:22:30;;;;;;;19.25;6.32;;;;;;;28.22;33.52;102461.53;5053864;28;20032;-73
2021/06/13 04:24:57;;;;;;;11.90;5.07;;;;;;;28.32;33.45;102466.44;5053794;28;20104;-73
2021/06/13 04:27:25;;;;;;;10.73;4.75;;;;;;;28.30;33.54;102468.84;5053768;28;20021;-73
2021/06/13 04:29:51;;;;;;;8.05;4.10;;;;;;;28.33;33.52;102461.63;5053611;28;20037;-73
2021/06/13 04:32:17;;;;;;;8.18;4.18;;;;;;;28.44;33.43;102459.69;5053678;28;20030;-73
2021/06/13 04:34:44;;;;;;;12.02;5.22;;;;;;;28.46;33.34;102463.69;5053576;28;20387;-73
2021/06/13 04:37:10;;;;;;;12.45;5.03;;;;;;;28.54;33.20;102466.53;5053590;28;20029;-73
2021/06/13 04:39:37;;;;;;;9.68;4.65;;;;;;;28.57;33.20;102465.75;5053554;28;20574;-73
2021/06/13 04:42:06;;;;;;;15.68;5.38;;;;;;;28.61;33.18;102466.56;5053422;28;20020;-73
2021/06/13 04:44:32;;;;;;;11.37;4.40;;;;;;;28.67;33.27;102462.19;5053457;28;20099;-73
2021/06/13 04:46:57;;;;;;;8.38;3.50;;;;;;;28.60;33.30;102468.56;5053433;28;20116;-73
2021/06/13 04:49:23;;;;;;;11.55;4.68;;;;;;;28.61;33.45;102466.56;5053253;28;20025;-74
2021/06/13 04:51:56;;;;;;;14.55;4.68;;;;;;;28.68;33.08;102461.78;5052764;28;20057;-72
2021/06/13 04:54:37;;;;;;;11.45;5.03;;;;;;;28.72;33.31;102468.22;5035311;28;20028;-74
2021/06/13 04:57:25;;;;;;;11.00;4.65;;;;;;;28.77;33.22;102474.66;5020027;28;20033;-72
2021/06/13 04:59:51;;;;;;;9.35;4.70;;;;;;;28.82;33.05;102466.63;5034831;28;20040;-73
2021/06/13 05:02:16;;;;;;;11.00;4.63;;;;;;;28.83;33.01;102475.88;5053097;28;20558;-72
2021/06/13 05:04:43;;;;;;;8.50;4.70;;;;;;;28.87;33.15;102479.50;5052988;28;20500;-72
2021/06/13 05:07:08;;;;;;;15.23;5.10;;;;;;;28.90;33.04;102484.34;5053061;28;20025;-72
2021/06/13 05:09:34;;;;;;;12.52;5.15;;;;;;;28.89;33.19;102468.66;5052886;28;20051;-72
2021/06/13 05:12:00;;;;;;;11.93;6.10;;;;;;;28.92;33.27;102465.09;5052956;28;20079;-72
2021/06/13 05:14:26;;;;;;;8.00;4.47;;;;;;;28.96;33.10;102468.72;5034073;28;20052;-72
2021/06/13 05:16:52;;;;;;;16.10;5.60;;;;;;;29.06;33.02;102469.94;5052862;28;20032;-72
2021/06/13 05:19:17;;;;;;;9.63;4.45;;;;;;;28.97;33.11;102467.50;5052894;28;20100;-72
2021/06/13 05:21:43;;;;;;;13.20;4.60;;;;;;;29.15;33.13;102473.16;5052818;28;20132;-72
2021/06/13 05:24:09;;;;;;;8.52;3.92;;;;;;;29.20;32.94;102472.78;5052746;28;20033;-72
2021/06/13 05:26:35;;;;;;;9.63;4.35;;;;;;;29.25;33.13;102478.81;5052714;28;20031;-72
2021/06/13 05:29:01;;;;;;;10.27;4.40;;;;;;;29.32;32.90;102475.19;5052653;28;20029;-72
2021/06/13 05:31:27;;;;;;;11.15;5.15;;;;;;;29.36;32.63;102463.94;5052693;28;20131;-72
2021/06/13 05:33:53;;;;;;;12.63;4.13;;;;;;;29.36;32.87;102467.56;5052599;28;20029;-72
2021/06/13 05:36:19;;;;;;;15.55;5.65;;;;;;;29.39;32.78;102463.94;5052579;28;20386;-72
2021/06/13 05:38:45;;;;;;;9.52;4.50;;;;;;;29.45;32.61;102467.16;5052540;28;20032;-73
2021/06/13 05:41:12;;;;;;;11.15;4.70;;;;;;;29.45;32.74;102472.78;5052535;28;20029;-73
2021/06/13 05:43:39;;;;;;;12.82;5.00;;;;;;;29.46;32.64;102466.75;5052435;28;20029;-73
2021/06/13 05:46:04;;;;;;;10.05;4.43;;;;;;;29.55;32.28;102463.59;5052315;28;20108;-73
2021/06/13 05:48:30;;;;;;;11.55;5.38;;;;;;;29.56;32.59;102459.56;5052421;28;20159;-74
2021/06/13 05:50:56;;;;;;;11.43;4.53;;;;;;;29.78;32.00;102457.53;5052189;28;20071;-73
2021/06/13 05:53:22;;;;;;;9.23;3.85;;;;;;;29.68;32.30;102453.50;5052391;28;20075;-73
2021/06/13 05:55:48;;;;;;;7.68;3.78;;;;;;;29.72;31.89;102450.69;5052393;28;20029;-73
2021/06/13 05:58:14;;;;;;;17.10;5.88;;;;;;;29.72;32.26;102451.50;5052328;28;20054;-73
2021/06/13 06:00:40;;;;;;;12.30;3.85;;;;;;;29.79;32.02;102451.47;5052396;28;20491;-74
2021/06/13 06:03:06;;;;;;;12.50;5.40;;;;;;;29.74;32.05;102451.88;5052350;28;20044;-74
2021/06/13 06:05:33;;;;;;;9.65;3.88;;;;;;;29.69;32.07;102443.03;5052364;28;20032;-73
2021/06/13 06:07:59;;;;;;;12.45;4.72;;;;;;;29.77;31.99;102445.44;5052316;28;20024;-73
2021/06/13 06:10:28;;;;;;;14.18;4.70;;;;;;;29.72;31.89;102448.66;5052153;28;20025;-73
2021/06/13 06:12:55;;;;;;;10.00;4.40;;;;;;;29.71;31.68;102449.88;5052303;28;20112;-73
2021/06/13 06:15:22;;;;;;;8.07;4.07;;;;;;;29.72;31.62;102445.06;5052152;28;20052;-73
2021/06/13 06:17:49;;;;;;;12.75;4.13;;;;;;;29.77;31.86;102447.44;5052177;28;20083;-74
2021/06/13 06:20:17;;;;;;;10.38;4.00;;;;;;;29.87;31.67;102445.84;5034343;28;20612;-73
2021/06/13 06:22:42;;;;;;;12.95;4.60;;;;;;;29.98;31.64;102446.59;5052134;28;20025;-73
2021/06/13 06:25:11;;;;;;;20.30;4.75;;;;;;;29.89;31.53;102452.66;5052199;28;20112;-73
2021/06/13 06:27:37;;;;;;;18.95;5.53;;;;;;;29.93;31.72;102444.22;5055797;28;20025;-73
2021/06/13 06:30:07;;;;;;;9.68;4.38;;;;;;;29.98;31.39;102453.03;5038004;28;20059;-73
2021/06/13 06:32:33;;;;;;;11.57;4.10;;;;;;;30.00;31.16;102456.28;5055987;28;20060;-73
2021/06/13 06:34:59;;;;;;;9.93;4.00;;;;;;;30.03;31.16;102451.84;5055897;28;20104;-74
2021/06/13 06:37:25;;;;;;;12.48;4.60;;;;;;;30.06;31.04;102445.38;5055900;28;20538;-74
2021/06/13 06:39:50;;;;;;;13.13;4.70;;;;;;;30.16;31.16;102447.41;5055851;28;20021;-73
2021/06/13 06:42:16;;;;;;;8.80;3.90;;;;;;;30.20;31.15;102453.81;5055701;28;20052;-73
2021/06/13 06:44:42;;;;;;;8.82;4.38;;;;;;;30.25;31.14;102455.44;5055659;28;20468;-73
2021/06/13 06:47:07;;;;;;;10.57;3.80;;;;;;;30.29;30.89;102454.19;5055679;28;20028;-73
2021/06/13 06:49:33;;;;;;;9.40;4.13;;;;;;;30.37;30.65;102454.97;5055537;28;20479;-74
2021/06/13 06:52:00;;;;;;;12.75;4.38;;;;;;;30.41;30.89;102458.59;5055381;28;20045;-74
2021/06/13 06:54:26;;;;;;;12.75;5.07;;;;;;;30.45;30.80;102455.72;5037651;28;20028;-73
2021/06/13 06:56:52;;;;;;;9.95;4.57;;;;;;;30.49;30.98;102457.34;5055462;28;20488;-74
2021/06/13 06:59:17;;;;;;;11.13;4.03;;;;;;;30.50;31.07;102458.94;5055511;28;20112;-73
2021/06/13 07:01:43;;;;;;;7.53;4.18;;;;;;;30.49;31.04;102459.34;5055376;28;20025;-74
2021/06/13 07:04:09;;;;;;;8.23;3.83;;;;;;;30.46;30.62;102452.53;5055380;28;20017;-73
2021/06/13 07:06:35;;;;;;;8.55;3.78;;;;;;;30.53;30.71;102457.31;5055206;28;20485;-73
2021/06/13 07:09:00;;;;;;;12.15;4.40;;;;;;;30.59;30.75;102458.50;5073848;28;20077;-73
2021/06/13 07:11:26;;;;;;;14.57;4.60;;;;;;;30.50;31.01;102452.50;5056547;28;20047;-75
2021/06/13 07:13:52;;;;;;;10.75;4.75;;;;;;;30.51;31.00;102456.91;5056128;28;20368;-73
2021/06/13 07:16:17;;;;;;;10.20;4.03;;;;;;;30.65;30.56;102462.50;5056466;28;20440;-72
2021/06/13 07:18:43;;;;;;;9.20;3.85;;;;;;;30.73;30.70;102457.66;5073792;28;20480;-73
2021/06/13 07:21:08;;;;;;;9.15;4.28;;;;;;;30.66;30.70;102464.13;5056258;28;20021;-72
2021/06/13 07:23:35;;;;;;;9.88;4.90;;;;;;;30.60;30.69;102463.72;5073518;28;20051;-73
2021/06/13 07:26:01;;;;;;;16.40;4.65;;;;;;;30.59;31.02;102456.47;5073095;28;20028;-74
2021/06/13 07:28:29;;;;;;;7.20;3.75;;;;;;;30.70;31.25;102464.94;5073979;28;20533;-75
2021/06/13 07:30:55;;;;;;;10.30;4.82;;;;;;;30.75;30.97;102460.84;5071000;28;20163;-75
2021/06/13 07:33:24;;;;;;;13.63;4.15;;;;;;;30.73;30.88;102458.44;5073468;28;20808;-75
2021/06/13 07:35:50;;;;;;;11.53;4.60;;;;;;;30.74;31.30;102460.06;5073828;28;20075;-74
2021/06/13 07:38:15;;;;;;;12.50;4.43;;;;;;;30.72;31.14;102451.19;5073391;28;20486;-74
2021/06/13 07:40:41;;;;;;;9.40;4.47;;;;;;;30.79;31.09;102447.53;5074682;28;20032;-75
2021/06/13 07:43:06;;;;;;;14.50;4.85;;;;;;;30.77;30.88;102453.59;5074207;28;20020;-75
2021/06/13 07:45:32;;;;;;;11.63;4.15;;;;;;;30.73;30.93;102452.00;5073925;28;20036;-74
2021/06/13 07:47:58;;;;;;;7.88;4.97;;;;;;;30.80;30.66;102452.78;5073140;28;20024;-74
2021/06/13 07:50:23;;;;;;;13.95;4.57;;;;;;;30.85;30.41;102460.81;5073414;28;20017;-78
2021/06/13 07:52:49;;;;;;;9.43;4.15;;;;;;;30.89;30.77;102461.56;5055136;28;20056;-81
2021/06/13 07:55:18;;;;;;;14.07;4.55;;;;;;;30.84;31.05;102470.50;5055184;28;20541;-74
2021/06/13 07:57:45;;;;;;;12.88;4.90;;;;;;;30.87;30.86;102463.22;5055121;28;20479;-75
2021/06/13 08:00:14;;;;;;;9.82;4.43;;;;;;;30.94;30.81;102469.63;5054969;28;20021;-72
2021/06/13 08:02:40;;;;;;;11.10;5.00;;;;;;;31.00;30.70;102467.16;5074242;28;20055;-72
2021/06/13 08:05:25;;;;;;;11.88;5.07;;;;;;;31.17;30.66;102465.44;5056260;28;20181;-73
2021/06/13 08:07:52;;;;;;;10.95;4.57;;;;;;;31.04;30.70;102465.13;5074125;28;20475;-74
2021/06/13 08:10:17;;;;;;;12.40;4.72;;;;;;;31.08;30.97;102467.94;5074118;28;20033;-73
2021/06/13 08:12:43;;;;;;;9.48;3.95;;;;;;;31.21;30.67;102477.50;5073923;28;20103;-73
2021/06/13 08:15:10;;;;;;;11.15;5.05;;;;;;;31.08;31.29;102474.38;5073757;28;20017;-73
2021/06/13 08:17:35;;;;;;;12.48;3.92;;;;;;;31.19;30.60;102475.09;5073049;28;20536;-72
2021/06/13 08:20:05;;;;;;;9.38;4.43;;;;;;;31.32;30.26;102460.50;5073110;28;20116;-72
2021/06/13 08:22:31;;;;;;;22.02;6.40;;;;;;;31.45;30.44;102472.91;5073444;28;20025;-74
2021/06/13 08:25:00;;;;;;;10.95;4.72;;;;;;;31.55;30.41;102469.19;5073149;28;20026;-73
2021/06/13 08:27:27;;;;;;;9.65;4.28;;;;;;;31.66;30.01;102463.44;5073282;28;20052;-74
2021/06/13 08:29:54;;;;;;;9.23;3.78;;;;;;;31.79;29.67;102456.06;5073113;28;20111;-72
2021/06/13 08:32:20;;;;;;;8.40;3.53;;;;;;;31.81;29.73;102469.78;5073325;28;20021;-72
2021/06/13 08:34:46;;;;;;;8.48;4.07;;;;;;;31.84;29.86;102466.13;5055619;28;20028;-72
2021/06/13 08:37:11;;;;;;;14.55;5.22;;;;;;;31.79;30.35;102466.56;5073466;28;20024;-73
2021/06/13 08:39:37;;;;;;;10.65;3.50;;;;;;;31.90;30.26;102453.97;5073547;28;20029;-73
2021/06/13 08:42:03;;;;;;;8.23;3.63;;;;;;;31.94;30.08;102446.22;5073402;28;20021;-74
2021/06/13 08:44:29;;;;;;;7.93;3.22;;;;;;;31.82;30.11;102455.25;5072981;28;20372;-73
2021/06/13 08:46:58;;;;;;;10.38;4.10;;;;;;;31.86;29.87;102447.53;5073367;28;20031;-74
2021/06/13 08:49:24;;;;;;;9.32;3.70;;;;;;;31.95;29.85;102455.50;5055017;28;20025;-74
2021/06/13 08:51:51;;;;;;;17.20;4.95;;;;;;;31.83;30.50;102459.69;5073073;28;20036;-73
2021/06/13 08:54:17;;;;;;;14.13;4.30;;;;;;;31.80;30.71;102457.69;5055343;28;20059;-73
2021/06/13 08:56:42;;;;;;;8.85;4.07;;;;;;;31.84;30.47;102457.66;5073200;28;20061;-73
2021/06/13 08:59:10;;;;;;;10.18;4.32;;;;;;;31.82;30.57;102463.72;5073177;28;20021;-73
2021/06/13 09:01:36;;;;;;;7.93;3.75;;;;;;;31.87;30.61;102457.59;5055149;28;20364;-73
2021/06/13 09:04:02;;;;;;;10.02;4.10;;;;;;;31.70;30.44;102452.91;5055058;28;20025;-72
2021/06/13 09:06:28;;;;;;;10.43;4.03;;;;;;;31.79;30.43;102449.63;5071655;28;20394;-73
2021/06/13 09:08:54;;;;;;;9.60;4.07;;;;;;;31.84;30.11;102458.47;5059822;28;20037;-76
2021/06/13 09:12:02;;;;;;;12.55;4.38;;;;;;;31.83;29.96;102453.22;5069582;28;20507;-76
2021/06/13 09:14:28;;;;;;;11.85;4.68;;;;;;;31.80;30.06;102452.03;5032814;28;20067;-75
2021/06/13 09:16:55;;;;;;;17.95;5.50;;;;;;;31.98;30.39;102444.16;5052907;28;20036;-75
2021/06/13 09:19:21;;;;;;;12.07;4.38;;;;;;;31.86;30.39;102441.88;5070069;28;20026;-74
2021/06/13 09:21:47;;;;;;;20.20;5.07;;;;;;;32.00;30.44;102421.13;5070518;28;20044;-74
2021/06/13 09:24:24;;;;;;;6.80;4.10;;;;;;;32.22;29.88;102433.00;5069735;28;20047;-75
2021/06/13 09:26:52;;;;;;;12.00;3.80;;;;;;;32.20;30.00;102429.78;5070144;28;20043;-75
2021/06/13 09:29:18;;;;;;;52.38;7.80;;;;;;;32.20;30.12;102418.47;5070127;28;20032;-76
2021/06/13 09:31:45;;;;;;;14.00;4.78;;;;;;;32.14;30.08;102423.78;5070678;28;20045;-75
2021/06/13 09:34:18;;;;;;;14.32;4.43;;;;;;;32.19;29.37;102414.81;5070175;28;20392;-74
2021/06/13 09:36:44;;;;;;;9.38;3.72;;;;;;;32.17;29.15;102424.97;5070788;28;20040;-75
2021/06/13 09:39:12;;;;;;;13.93;5.40;;;;;;;32.16;29.40;102420.53;5069454;28;20031;-77
2021/06/13 09:41:41;;;;;;;12.00;4.47;;;;;;;31.97;29.94;102422.78;5070186;28;20032;-75
2021/06/13 09:44:10;;;;;;;7.80;3.85;;;;;;;32.10;29.59;102416.56;5052067;28;20021;-74
2021/06/13 09:46:38;;;;;;;11.90;4.30;;;;;;;32.07;29.92;102417.44;5070594;28;20406;-75
2021/06/13 09:49:07;;;;;;;10.98;4.35;;;;;;;32.11;29.90;102412.50;5061285;28;20622;-75
2021/06/13 09:51:40;;;;;;;9.05;4.25;;;;;;;32.22;29.60;102421.69;5039956;28;20104;-75
2021/06/13 09:54:08;;;;;;;18.42;4.35;;;;;;;32.16;29.79;102415.69;5052714;28;20029;-75
2021/06/13 09:56:41;;;;;;;7.40;4.63;;;;;;;32.21;29.54;102408.78;5052590;28;20029;-80
2021/06/13 09:59:16;;;;;;;13.02;4.30;;;;;;;32.23;29.97;102407.13;5050769;28;20060;-74
2021/06/13 10:01:53;;;;;;;9.25;3.72;;;;;;;32.21;29.78;102403.13;5052086;28;20057;-83
2021/06/13 10:04:19;;;;;;;18.98;5.28;;;;;;;32.38;29.66;102402.09;5054214;28;20067;-75
2021/06/13 10:06:48;;;;;;;13.43;4.47;;;;;;;32.42;29.31;102402.88;5052873;28;20040;-76
2021/06/13 10:09:15;;;;;;;6.20;3.87;;;;;;;32.44;29.31;102410.94;5052693;28;20051;-75
2021/06/13 10:11:41;;;;;;;11.85;4.50;;;;;;;32.64;29.09;102396.88;5053170;28;20032;-77
2021/06/13 10:14:09;;;;;;;8.40;3.97;;;;;;;32.61;29.08;102392.09;5071785;28;20478;-80
2021/06/13 10:16:41;;;;;;;21.88;4.15;;;;;;;32.78;29.03;102396.69;5075413;28;20506;-80
2021/06/13 10:19:09;;;;;;;15.18;5.60;;;;;;;32.78;28.90;102391.00;5075219;28;20494;-75
2021/06/13 10:21:44;;;;;;;13.93;7.40;;;;;;;32.94;28.96;102394.03;5074120;28;20539;-78
2021/06/13 10:24:14;;;;;;;8.68;3.88;;;;;;;33.01;28.70;102390.28;5076024;28;20024;-76
2021/06/13 10:26:43;;;;;;;20.48;5.00;;;;;;;32.97;28.81;102392.38;5076121;28;20097;-76
2021/06/13 10:29:09;;;;;;;18.10;4.55;;;;;;;33.16;28.65;102390.84;5075946;28;20039;-78
2021/06/13 10:31:37;;;;;;;17.10;4.55;;;;;;;32.87;29.24;102388.47;5075931;28;20040;-78
2021/06/13 10:34:03;;;;;;;19.02;5.50;;;;;;;32.83;29.01;102377.19;5074301;28;20099;-77
2021/06/13 10:36:34;;;;;;;25.10;5.57;;;;;;;32.71;29.28;102377.75;5075702;28;20150;-78
2021/06/13 10:39:00;;;;;;;17.95;5.35;;;;;;;32.95;28.72;102366.50;5075528;28;20032;-74
2021/06/13 10:41:26;;;;;;;13.30;4.53;;;;;;;32.69;29.32;102380.22;5075600;28;20381;-75
2021/06/13 10:43:59;;;;;;;11.35;3.83;;;;;;;32.56;29.14;102374.34;5075578;28;20027;-77
2021/06/13 10:46:30;;;;;;;13.65;5.13;;;;;;;32.58;29.47;102373.94;5075667;28;20020;-76
2021/06/13 10:48:58;;;;;;;16.58;4.65;;;;;;;32.35;29.82;102373.88;5073786;28;20044;-75
2021/06/13 10:51:43;;;;;;;15.23;5.90;;;;;;;32.31;29.63;102371.06;5073208;28;20044;-77
2021/06/13 10:54:28;;;;;;;17.58;7.03;;;;;;;32.13;29.80;102367.66;5073560;28;20095;-75
2021/06/13 10:57:04;;;;;;;21.80;6.00;;;;;;;31.89;30.04;102372.38;5073511;28;20021;-74
2021/06/13 10:59:35;;;;;;;13.45;5.22;;;;;;;31.78;30.39;102363.25;5073415;28;20037;-76
2021/06/13 11:02:11;;;;;;;16.45;4.85;;;;;;;31.66;30.23;102368.16;5073343;28;20082;-74
2021/06/13 11:04:43;;;;;;;11.63;4.60;;;;;;;31.52;30.54;102371.16;5073965;28;20020;-75
2021/06/13 11:07:10;;;;;;;22.00;5.70;;;;;;;31.57;30.49;102370.69;5074743;28;20048;-74
2021/06/13 11:10:16;;;;;;;13.63;5.50;;;;;;;31.59;30.66;102373.09;5075021;28;20028;-75
2021/06/13 11:12:51;;;;;;;19.77;5.20;;;;;;;31.57;30.86;102375.53;5073786;28;20056;-76
2021/06/13 11:15:41;;;;;;;17.65;5.60;;;;;;;31.56;31.12;102368.28;5055134;28;20125;-76
2021/06/13 11:18:15;;;;;;;18.85;5.18;;;;;;;31.64;30.70;102359.31;5054887;28;20021;-77
2021/06/13 11:21:12;;;;;;;14.07;5.18;;;;;;;31.76;31.03;102360.81;5061410;28;20025;-74
2021/06/13 11:23:40;;;;;;;21.98;5.28;;;;;;;32.00;30.53;102359.75;5074945;28;20021;-74
2021/06/13 11:26:10;;;;;;;13.45;5.05;;;;;;;32.01;30.39;102361.34;5074744;28;20486;-74